Time;durP1;ratioP1;P1;durP2;ratioP2;P2;SDS_P1;SDS_P2;PMS_P1;PMS_P2;Temp;Humidity;BMP_temperature;BMP_pressure;BME280_temperature;BME280_humidity;BME280_pressure;Samples;Min_cycle;Max_cycle;Signal;HPM_P1;HPM_P2
2023/12/29 14:54:03;;;;;;;8.60;1.20;;;10.20;99.90;;;;;;5087783;28;20541;-84
2023/12/29 14:56:28;;;;;;;5.87;1.20;;;10.20;99.90;;;;;;5068980;28;20201;-84
2023/12/29 14:58:54;;;;;;;5.03;1.33;;;10.60;99.90;;;;;;5068600;28;20189;-82
2023/12/29 15:01:20;;;;;;;7.30;2.10;;;10.50;99.90;;;;;;5068743;28;20169;-79
2023/12/29 15:03:45;;;;;;;5.00;1.83;;;10.30;99.90;;;;;;5069181;28;20176;-82
2023/12/29 15:06:11;;;;;;;5.03;2.20;;;10.10;99.90;;;;;;5065406;28;20203;-79
2023/12/29 15:08:37;;;;;;;7.20;2.30;;;10.00;99.90;;;;;;5057999;28;20643;-83
2023/12/29 15:11:06;;;;;;;9.57;2.60;;;9.50;99.90;;;;;;5065756;28;20251;-84
2023/12/29 15:13:33;;;;;;;9.17;2.50;;;9.80;99.90;;;;;;5048665;28;20216;-83
2023/12/29 15:15:59;;;;;;;10.27;2.40;;;9.80;99.90;;;;;;5080436;28;20165;-81
2023/12/29 15:18:26;;;;;;;6.70;2.57;;;9.70;99.90;;;;;;5080574;28;20197;-84
2023/12/29 15:20:52;;;;;;;7.90;2.73;;;9.60;99.90;;;;;;5058708;28;20165;-79
2023/12/29 15:23:17;;;;;;;10.93;2.43;;;9.60;99.90;;;;;;5067115;28;20198;-79
2023/12/29 15:25:43;;;;;;;8.30;2.93;;;9.60;99.90;;;;;;5068014;28;20258;-82
2023/12/29 15:28:08;;;;;;;13.50;3.33;;;9.60;99.90;;;;;;5067835;28;20212;-80
2023/12/29 15:30:34;;;;;;;8.83;2.70;;;9.60;99.90;;;;;;5073659;28;20177;-78
2023/12/29 15:33:00;;;;;;;13.30;3.10;;;9.50;99.90;;;;;;5065671;28;20277;-80
2023/12/29 15:35:25;;;;;;;5.70;2.47;;;9.50;99.90;;;;;;5063703;28;20256;-82
2023/12/29 15:37:51;;;;;;;7.57;2.77;;;9.50;99.90;;;;;;5058601;28;20520;-85
2023/12/29 15:40:17;;;;;;;9.23;2.83;;;9.50;99.90;;;;;;5059995;28;20209;-84
2023/12/29 15:42:42;;;;;;;7.90;2.77;;;9.50;99.90;;;;;;5050949;28;20347;-80
2023/12/29 15:45:10;;;;;;;10.27;3.07;;;9.40;99.90;;;;;;5050064;28;20177;-83
2023/12/29 15:47:35;;;;;;;7.13;2.50;;;9.40;99.90;;;;;;5050669;28;20169;-87
2023/12/29 15:50:01;;;;;;;7.57;2.83;;;9.40;99.90;;;;;;5058616;28;20520;-80
2023/12/29 15:52:28;;;;;;;10.47;3.17;;;9.40;99.90;;;;;;5065134;28;20277;-84
2023/12/29 15:54:53;;;;;;;6.60;2.70;;;9.40;99.90;;;;;;5059353;28;20185;-84
2023/12/29 15:57:20;;;;;;;6.97;3.00;;;9.40;99.90;;;;;;5054113;28;20176;-82
2023/12/29 15:59:46;;;;;;;9.07;2.60;;;9.30;99.90;;;;;;5061064;28;20181;-85
2023/12/29 16:02:11;;;;;;;7.20;2.47;;;9.30;99.90;;;;;;5065800;28;20180;-85
2023/12/29 16:04:37;;;;;;;8.73;3.00;;;9.30;99.90;;;;;;5056499;28;20655;-86
2023/12/29 16:07:03;;;;;;;9.07;2.97;;;9.30;99.90;;;;;;5052991;28;20690;-83
2023/12/29 16:09:28;;;;;;;7.87;2.60;;;9.20;99.90;;;;;;5052740;28;20173;-84
2023/12/29 16:11:54;;;;;;;9.07;2.70;;;9.20;99.90;;;;;;5051869;28;20174;-83
2023/12/29 16:14:21;;;;;;;10.00;3.10;;;9.10;99.90;;;;;;5053976;28;20201;-83
2023/12/29 16:16:47;;;;;;;6.20;2.27;;;9.10;99.90;;;;;;5053689;28;20173;-84
2023/12/29 16:19:13;;;;;;;6.13;2.60;;;9.10;99.90;;;;;;5054274;28;20650;-81
2023/12/29 16:21:39;;;;;;;7.60;2.73;;;9.10;99.90;;;;;;5053851;28;20541;-83
2023/12/29 16:24:09;;;;;;;9.47;2.47;;;9.00;99.90;;;;;;5053791;28;20175;-81
2023/12/29 16:26:36;;;;;;;5.87;2.37;;;9.00;99.90;;;;;;5053846;28;20208;-85
2023/12/29 16:29:03;;;;;;;5.80;2.57;;;9.10;99.90;;;;;;5053998;28;20185;-83
2023/12/29 16:31:29;;;;;;;7.60;2.43;;;9.10;99.90;;;;;;5053671;28;20231;-82
2023/12/29 16:33:55;;;;;;;7.10;2.77;;;9.10;99.90;;;;;;5053499;28;20209;-83
2023/12/29 16:36:21;;;;;;;5.60;2.53;;;9.10;99.90;;;;;;5054416;28;20616;-83
2023/12/29 16:38:49;;;;;;;8.33;2.90;;;9.20;99.90;;;;;;5053735;28;20201;-82
2023/12/29 16:41:16;;;;;;;10.67;3.37;;;9.20;99.90;;;;;;5053417;28;20165;-82
2023/12/29 16:43:42;;;;;;;7.77;2.90;;;9.20;99.90;;;;;;5053409;28;20624;-82
2023/12/29 16:46:08;;;;;;;5.67;2.43;;;9.20;99.90;;;;;;5053510;28;20177;-82
2023/12/29 16:48:34;;;;;;;5.50;2.67;;;9.20;99.90;;;;;;5053120;28;20635;-84
2023/12/29 16:51:00;;;;;;;6.03;2.93;;;9.20;99.90;;;;;;5053149;28;20726;-82
2023/12/29 16:53:26;;;;;;;8.77;2.77;;;9.20;99.90;;;;;;5052833;28;20298;-83
2023/12/29 16:55:52;;;;;;;6.70;2.77;;;9.10;99.90;;;;;;5053007;28;20173;-83
2023/12/29 16:58:21;;;;;;;6.73;2.73;;;9.20;99.90;;;;;;5053082;28;20181;-81
2023/12/29 17:00:47;;;;;;;10.13;3.07;;;9.20;99.90;;;;;;5052945;28;20177;-81
2023/12/29 17:03:14;;;;;;;7.50;2.87;;;9.20;99.90;;;;;;5052960;28;20169;-80
2023/12/29 17:05:40;;;;;;;9.10;2.93;;;9.20;99.90;;;;;;5052960;28;20208;-82
2023/12/29 17:08:06;;;;;;;4.93;2.50;;;9.20;99.90;;;;;;5053183;28;20184;-84
2023/12/29 17:10:31;;;;;;;3.63;2.70;;;9.00;99.90;;;;;;5053472;28;20248;-84
2023/12/29 17:12:57;;;;;;;8.80;4.70;;;8.80;99.90;;;;;;5053187;28;20304;-83
2023/12/29 17:15:23;;;;;;;11.30;6.20;;;8.70;99.90;;;;;;5052205;28;20253;-80
2023/12/29 17:17:48;;;;;;;2.10;1.90;;;8.60;99.90;;;;;;5052567;28;20595;-84
2023/12/29 17:20:15;;;;;;;8.20;5.73;;;8.40;99.90;;;;;;5038028;28;20173;-84
2023/12/29 17:22:41;;;;;;;5.20;2.30;;;8.30;99.90;;;;;;5033092;28;20170;-84
2023/12/29 17:25:08;;;;;;;6.00;3.63;;;8.20;99.90;;;;;;5032682;28;20219;-81
2023/12/29 17:27:34;;;;;;;4.13;2.00;;;8.20;99.90;;;;;;5041601;28;20188;-84
2023/12/29 17:29:59;;;;;;;5.13;2.30;;;8.20;99.90;;;;;;5038431;28;20178;-83
2023/12/29 17:32:25;;;;;;;7.43;3.40;;;8.10;99.90;;;;;;5043480;28;20228;-89
2023/12/29 17:34:51;;;;;;;3.23;2.07;;;8.10;99.90;;;;;;5049097;28;20181;-87
2023/12/29 17:37:16;;;;;;;9.00;4.43;;;8.20;99.90;;;;;;5037715;28;20178;-92
2023/12/29 17:39:42;;;;;;;8.47;4.13;;;8.20;99.90;;;;;;5033935;28;20166;-92
2023/12/29 17:42:11;;;;;;;3.70;2.03;;;8.10;99.90;;;;;;5034232;28;20182;-90
2023/12/29 17:44:37;;;;;;;4.77;2.20;;;8.00;99.90;;;;;;5036606;28;20174;-89
2023/12/29 17:47:03;;;;;;;5.30;2.20;;;8.00;99.90;;;;;;5049949;28;20180;-91
2023/12/29 17:49:29;;;;;;;4.10;2.20;;;8.00;99.90;;;;;;5048730;28;20268;-95
2023/12/29 17:51:56;;;;;;;6.67;2.40;;;8.00;99.90;;;;;;5033662;28;20668;-93
2023/12/29 17:54:22;;;;;;;2.77;1.97;;;;;;;;;;5038631;28;20261;-93
2023/12/29 17:56:49;;;;;;;6.17;2.50;;;;;;;;;;5042394;28;20219;-91
2023/12/29 17:59:14;;;;;;;6.00;2.13;;;8.00;99.90;;;;;;5034607;28;20170;-90
2023/12/29 18:01:40;;;;;;;5.40;2.10;;;8.00;99.90;;;;;;5043921;28;20172;-93
2023/12/29 18:04:05;;;;;;;3.27;2.20;;;8.00;99.90;;;;;;5046627;28;20185;-92
2023/12/29 18:06:31;;;;;;;4.33;2.30;;;8.00;99.90;;;;;;5033551;28;20170;-94
2023/12/29 18:08:58;;;;;;;4.70;2.20;;;8.00;99.90;;;;;;5043795;28;20176;-93
2023/12/29 18:11:26;;;;;;;7.97;2.83;;;8.10;99.90;;;;;;5072999;28;20173;-95
2023/12/29 18:13:52;;;;;;;5.67;2.37;;;8.10;99.90;;;;;;5072718;28;20240;-93
2023/12/29 18:16:18;;;;;;;4.60;2.27;;;8.10;99.90;;;;;;5073440;28;20214;-93
2023/12/29 18:18:45;;;;;;;6.17;2.43;;;8.10;99.90;;;;;;5073124;28;20176;-92
2023/12/29 18:21:10;;;;;;;3.47;2.23;;;8.10;99.90;;;;;;5069245;28;20256;-93
2023/12/29 18:23:36;;;;;;;4.23;2.23;;;8.10;99.90;;;;;;5042068;28;20197;-88
2023/12/29 18:26:03;;;;;;;6.13;2.50;;;8.10;99.90;;;;;;5042285;28;20255;-92
2023/12/29 18:28:30;;;;;;;6.13;2.40;;;8.10;99.90;;;;;;5047209;28;20170;-89
2023/12/29 18:30:56;;;;;;;3.83;2.23;;;8.00;99.90;;;;;;5042814;28;20687;-88
2023/12/29 18:33:22;;;;;;;7.53;2.40;;;8.00;99.90;;;;;;5065115;28;20273;-91
2023/12/29 18:35:49;;;;;;;3.03;2.03;;;8.00;99.90;;;;;;5050075;28;20241;-89
2023/12/29 18:38:14;;;;;;;3.47;2.17;;;8.00;99.90;;;;;;5032854;28;20185;-90
2023/12/29 18:40:40;;;;;;;7.33;2.37;;;8.00;99.90;;;;;;5033016;28;20178;-90
2023/12/29 18:43:06;;;;;;;7.10;2.30;;;8.00;99.90;;;;;;5033826;28;20170;-86
2023/12/29 18:45:31;;;;;;;5.33;2.50;;;8.10;99.90;;;;;;5042207;28;20188;-90
2023/12/29 18:47:58;;;;;;;4.70;2.50;;;8.10;99.90;;;;;;5053040;28;20180;-92
2023/12/29 18:50:24;;;;;;;6.23;2.70;;;8.20;99.90;;;;;;5052752;28;20197;-93
2023/12/29 18:52:50;;;;;;;4.60;2.30;;;8.20;99.90;;;;;;5051124;28;20286;-92
2023/12/29 18:55:16;;;;;;;5.57;2.40;;;8.20;99.90;;;;;;5035454;28;20192;-89
2023/12/29 18:57:42;;;;;;;4.27;2.23;;;8.10;99.90;;;;;;5048419;28;20227;-90
2023/12/29 19:00:08;;;;;;;5.60;2.27;;;8.10;99.90;;;;;;5051062;28;20173;-90
2023/12/29 19:02:34;;;;;;;3.00;1.90;;;8.00;99.90;;;;;;5052098;28;20177;-90
2023/12/29 19:04:59;;;;;;;2.27;1.90;;;8.00;99.90;;;;;;5069436;28;20233;-90
2023/12/29 19:07:25;;;;;;;3.83;2.10;;;7.90;99.90;;;;;;5062290;28;20189;-92
2023/12/29 19:09:51;;;;;;;3.30;2.23;;;7.90;99.90;;;;;;5042645;28;20174;-90
2023/12/29 19:12:17;;;;;;;2.07;1.80;;;7.80;99.90;;;;;;5054011;28;20207;-88
2023/12/29 19:14:45;;;;;;;3.53;2.20;;;7.70;99.90;;;;;;5052412;28;20169;-90
2023/12/29 19:17:10;;;;;;;6.67;2.40;;;7.70;99.90;;;;;;5052365;28;20234;-89
2023/12/29 19:19:36;;;;;;;8.30;2.77;;;7.70;99.90;;;;;;5040758;28;20162;-87
2023/12/29 19:22:01;;;;;;;2.80;2.23;;;7.70;99.90;;;;;;5040719;28;20185;-89
2023/12/29 19:24:28;;;;;;;5.13;2.40;;;7.60;99.90;;;;;;5043471;28;20173;-94
2023/12/29 19:26:53;;;;;;;3.83;2.20;;;7.60;99.90;;;;;;5051885;28;20186;-89
2023/12/29 19:29:19;;;;;;;5.30;2.20;;;7.60;99.90;;;;;;5047588;28;20195;-90
2023/12/29 19:31:45;;;;;;;5.87;2.30;;;7.60;99.90;;;;;;5041634;28;20182;-87
2023/12/29 19:34:12;;;;;;;5.90;2.20;;;7.60;99.90;;;;;;5031170;28;20209;-84
2023/12/29 19:36:37;;;;;;;3.23;2.03;;;7.60;99.90;;;;;;5043316;28;20223;-86
2023/12/29 19:39:04;;;;;;;4.87;2.33;;;7.60;99.90;;;;;;5052421;28;20672;-88
2023/12/29 19:41:35;;;;;;;3.60;2.27;;;7.70;99.90;;;;;;5055096;28;20169;-85
2023/12/29 19:44:02;;;;;;;3.80;2.10;;;7.80;99.90;;;;;;5054951;28;20216;-86
2023/12/29 19:46:28;;;;;;;6.23;2.47;;;7.90;99.90;;;;;;5053215;28;20188;-82
2023/12/29 19:48:54;;;;;;;3.50;2.20;;;7.90;99.90;;;;;;5054880;28;20173;-84
2023/12/29 19:51:20;;;;;;;3.10;1.80;;;8.20;99.90;;;;;;5055971;28;20181;-79
2023/12/29 19:53:46;;;;;;;4.87;2.43;;;7.80;99.90;;;;;;5059082;28;20232;-84
2023/12/29 19:56:11;;;;;;;3.50;1.93;;;7.90;99.90;;;;;;5053305;28;20177;-86
2023/12/29 19:58:37;;;;;;;2.10;1.90;;;7.90;99.90;;;;;;5043421;28;20241;-81
2023/12/29 20:01:06;;;;;;;4.20;2.10;;;7.80;99.90;;;;;;5049834;28;20644;-80
2023/12/29 20:03:31;;;;;;;4.23;2.00;;;7.80;99.90;;;;;;5039886;28;20174;-83
2023/12/29 20:05:57;;;;;;;2.97;1.93;;;7.70;99.90;;;;;;5036590;28;20193;-82
2023/12/29 20:08:23;;;;;;;4.23;2.30;;;7.70;99.90;;;;;;5034163;28;20260;-79
2023/12/29 20:10:49;;;;;;;3.40;1.80;;;7.70;99.90;;;;;;5032799;28;20208;-81
2023/12/29 20:13:15;;;;;;;4.07;2.00;;;8.00;99.90;;;;;;5034822;28;20632;-83
2023/12/29 20:15:43;;;;;;;3.23;1.80;;;7.60;99.90;;;;;;5046819;28;20200;-84
2023/12/29 20:18:10;;;;;;;5.10;2.10;;;7.50;99.90;;;;;;5049533;28;20701;-83
2023/12/29 20:20:36;;;;;;;2.30;1.80;;;7.50;99.90;;;;;;5053405;28;20185;-80
2023/12/29 20:23:02;;;;;;;2.20;1.70;;;7.40;99.90;;;;;;5044874;28;20227;-84
2023/12/29 20:25:28;;;;;;;4.20;1.97;;;7.40;99.90;;;;;;5053196;28;20575;-81
2023/12/29 20:27:54;;;;;;;4.37;1.90;;;7.30;99.90;;;;;;5045566;28;20223;-82
2023/12/29 20:30:19;;;;;;;4.23;1.87;;;7.30;99.90;;;;;;5033005;28;20176;-81
2023/12/29 20:32:45;;;;;;;3.77;1.70;;;7.30;99.90;;;;;;5033185;28;20216;-83
2023/12/29 20:35:13;;;;;;;4.77;1.90;;;7.30;99.90;;;;;;5033152;28;20162;-85
2023/12/29 20:37:39;;;;;;;3.77;1.70;;;7.20;99.90;;;;;;5046449;28;20564;-83
2023/12/29 20:40:05;;;;;;;3.10;1.70;;;7.20;99.90;;;;;;5037665;28;20174;-82
2023/12/29 20:42:31;;;;;;;2.00;1.60;;;7.20;99.90;;;;;;5051586;28;20173;-81
2023/12/29 20:44:58;;;;;;;3.50;1.70;;;7.50;99.90;;;;;;5039848;28;20536;-84
2023/12/29 20:47:24;;;;;;;4.97;1.90;;;7.40;99.90;;;;;;5053096;28;20200;-85
2023/12/29 20:49:50;;;;;;;3.00;1.80;;;7.40;99.90;;;;;;5053088;28;20636;-87
2023/12/29 20:52:17;;;;;;;4.27;1.83;;;7.50;99.90;;;;;;5052998;28;20220;-82
2023/12/29 20:54:43;;;;;;;5.73;2.13;;;7.50;99.90;;;;;;5037938;28;20174;-86
2023/12/29 20:57:09;;;;;;;2.60;1.80;;;7.50;99.90;;;;;;5053137;28;20651;-88
2023/12/29 20:59:37;;;;;;;5.30;2.30;;;7.50;99.90;;;;;;5053864;28;20197;-87
2023/12/29 21:02:04;;;;;;;4.83;2.10;;;7.50;99.90;;;;;;5039900;28;20405;-88
2023/12/29 21:04:31;;;;;;;4.13;2.13;;;7.50;99.90;;;;;;5043569;28;20162;-88
2023/12/29 21:06:58;;;;;;;3.43;2.03;;;7.40;99.90;;;;;;5036092;28;20180;-88
2023/12/29 21:09:24;;;;;;;2.53;1.87;;;7.40;99.90;;;;;;5055589;28;20173;-89
2023/12/29 21:11:50;;;;;;;2.73;2.17;;;7.40;99.90;;;;;;5040683;28;20244;-85
2023/12/29 21:14:15;;;;;;;3.63;2.20;;;7.50;99.90;;;;;;5038218;28;20186;-86
2023/12/29 21:16:42;;;;;;;5.60;2.57;;;7.50;99.90;;;;;;5042614;28;20197;-92
2023/12/29 21:19:07;;;;;;;3.90;1.90;;;7.50;99.90;;;;;;5053250;28;20260;-89
2023/12/29 21:21:37;;;;;;;3.43;2.07;;;7.50;99.90;;;;;;5052244;28;20652;-88
2023/12/29 21:24:04;;;;;;;3.50;2.00;;;7.50;99.90;;;;;;5063383;28;20184;-89
2023/12/29 21:26:32;;;;;;;6.00;2.33;;;7.50;99.90;;;;;;5067867;28;20185;-87
2023/12/29 21:29:00;;;;;;;3.13;2.10;;;7.60;99.90;;;;;;5068497;28;20242;-89
2023/12/29 21:31:25;;;;;;;2.53;1.90;;;7.60;99.90;;;;;;5051555;28;20185;-87
2023/12/29 21:33:51;;;;;;;3.20;2.17;;;7.70;99.90;;;;;;5048533;28;20205;-92
2023/12/29 21:36:27;;;;;;;5.00;2.20;;;7.70;99.90;;;;;;5052612;28;20174;-91
2023/12/29 21:38:53;;;;;;;6.43;2.53;;;7.60;99.90;;;;;;5081144;28;20237;-92
2023/12/29 21:41:19;;;;;;;4.37;2.07;;;7.60;99.90;;;;;;5079809;28;20636;-92
2023/12/29 21:43:45;;;;;;;4.63;2.30;;;7.50;99.90;;;;;;5067645;28;20218;-89
2023/12/29 21:46:12;;;;;;;5.47;2.00;;;7.50;99.90;;;;;;5074036;28;20172;-91
2023/12/29 21:48:38;;;;;;;6.97;2.40;;;7.50;99.90;;;;;;5064630;28;20185;-91
2023/12/29 21:51:04;;;;;;;4.37;2.00;;;7.60;99.90;;;;;;5065751;28;20181;-93
2023/12/29 21:53:30;;;;;;;4.33;2.27;;;7.70;99.90;;;;;;5061367;28;20342;-91
2023/12/29 21:56:02;;;;;;;2.40;1.70;;;7.70;99.90;;;;;;5058261;28;20264;-92
2023/12/29 21:58:28;;;;;;;7.03;2.40;;;7.80;99.90;;;;;;5047951;28;20676;-91
2023/12/29 22:01:26;;;;;;;5.73;2.30;;;7.90;99.90;;;;;;5043227;28;20537;-87
2023/12/29 22:03:51;;;;;;;6.13;2.40;;;7.90;99.90;;;;;;5052428;28;20166;-82
2023/12/29 22:06:17;;;;;;;5.03;2.10;;;7.90;99.90;;;;;;5039373;28;20196;-89
2023/12/29 22:08:43;;;;;;;4.67;1.90;;;7.90;99.90;;;;;;5033261;28;20193;-87
2023/12/29 22:11:09;;;;;;;5.43;2.10;;;7.80;99.90;;;;;;5040241;28;20617;-88
2023/12/29 22:13:34;;;;;;;7.17;2.43;;;7.60;99.90;;;;;;5032121;28;20201;-85
2023/12/29 22:16:00;;;;;;;6.17;2.37;;;7.70;99.90;;;;;;5031751;28;20180;-88
2023/12/29 22:18:25;;;;;;;5.63;2.10;;;7.60;99.90;;;;;;5031784;28;20644;-89
2023/12/29 22:20:51;;;;;;;4.87;2.03;;;7.60;99.90;;;;;;5033194;28;20173;-88
2023/12/29 22:23:17;;;;;;;4.63;2.10;;;7.60;99.90;;;;;;5032067;28;20658;-88
2023/12/29 22:25:46;;;;;;;5.03;2.00;;;7.60;99.90;;;;;;5030795;28;20180;-88
2023/12/29 22:28:13;;;;;;;7.83;2.37;;;7.60;99.90;;;;;;5046916;28;20181;-87
2023/12/29 22:30:38;;;;;;;5.87;2.10;;;7.60;99.90;;;;;;5047313;28;20179;-86
2023/12/29 22:33:04;;;;;;;9.23;2.33;;;7.60;99.90;;;;;;5032006;28;20214;-84
2023/12/29 22:35:30;;;;;;;6.67;2.10;;;7.60;99.90;;;;;;5032499;28;20177;-87
2023/12/29 22:37:55;;;;;;;3.70;1.90;;;7.60;99.90;;;;;;5031292;28;20783;-88
2023/12/29 22:40:21;;;;;;;6.63;2.47;;;7.60;99.90;;;;;;5032794;28;20177;-88
2023/12/29 22:42:48;;;;;;;10.57;2.83;;;7.50;99.90;;;;;;5033138;28;20224;-87
2023/12/29 22:45:14;;;;;;;5.63;1.90;;;7.60;99.90;;;;;;5040470;28;20250;-87
